sensor_id;sensor_type;location;lat;lon;timestamp;P1;durP1;ratioP1;P2;durP2;ratioP2
60722;SDS011;46574;52.818;6.516;2023-10-31T00:01:48;8.52;;;7.10;;
60722;SDS011;46574;52.818;6.516;2023-10-31T00:04:14;8.43;;;6.47;;
60722;SDS011;46574;52.818;6.516;2023-10-31T00:06:40;9.00;;;7.47;;
60722;SDS011;46574;52.818;6.516;2023-10-31T00:09:06;8.95;;;7.18;;
60722;SDS011;46574;52.818;6.516;2023-10-31T00:11:32;6.85;;;6.15;;
60722;SDS011;46574;52.818;6.516;2023-10-31T00:13:57;8.90;;;7.55;;
60722;SDS011;46574;52.818;6.516;2023-10-31T00:16:23;7.32;;;6.60;;
60722;SDS011;46574;52.818;6.516;2023-10-31T00:18:49;7.80;;;7.00;;
60722;SDS011;46574;52.818;6.516;2023-10-31T00:21:14;9.48;;;7.65;;
60722;SDS011;46574;52.818;6.516;2023-10-31T00:23:44;7.78;;;7.03;;
60722;SDS011;46574;52.818;6.516;2023-10-31T00:26:10;7.28;;;6.25;;
60722;SDS011;46574;52.818;6.516;2023-10-31T00:28:36;5.20;;;4.70;;
60722;SDS011;46574;52.818;6.516;2023-10-31T00:31:01;3.50;;;2.72;;
60722;SDS011;46574;52.818;6.516;2023-10-31T00:33:29;4.15;;;2.60;;
60722;SDS011;46574;52.818;6.516;2023-10-31T00:35:54;2.00;;;1.80;;
60722;SDS011;46574;52.818;6.516;2023-10-31T00:38:20;2.25;;;2.03;;
60722;SDS011;46574;52.818;6.516;2023-10-31T00:40:46;3.10;;;2.00;;
60722;SDS011;46574;52.818;6.516;2023-10-31T00:43:11;2.30;;;1.80;;
60722;SDS011;46574;52.818;6.516;2023-10-31T00:45:37;2.53;;;1.42;;
60722;SDS011;46574;52.818;6.516;2023-10-31T00:48:03;2.10;;;1.77;;
60722;SDS011;46574;52.818;6.516;2023-10-31T00:50:29;1.83;;;1.73;;
60722;SDS011;46574;52.818;6.516;2023-10-31T00:52:54;3.40;;;1.83;;
60722;SDS011;46574;52.818;6.516;2023-10-31T00:55:20;1.80;;;1.70;;
60722;SDS011;46574;52.818;6.516;2023-10-31T00:57:45;2.38;;;1.60;;
60722;SDS011;46574;52.818;6.516;2023-10-31T01:00:11;3.10;;;1.60;;
60722;SDS011;46574;52.818;6.516;2023-10-31T01:02:37;2.05;;;1.83;;
60722;SDS011;46574;52.818;6.516;2023-10-31T01:05:03;2.30;;;2.10;;
60722;SDS011;46574;52.818;6.516;2023-10-31T01:07:29;3.72;;;2.20;;
60722;SDS011;46574;52.818;6.516;2023-10-31T01:09:55;3.08;;;2.03;;
60722;SDS011;46574;52.818;6.516;2023-10-31T01:12:20;3.28;;;2.00;;
60722;SDS011;46574;52.818;6.516;2023-10-31T01:14:46;2.03;;;1.60;;
60722;SDS011;46574;52.818;6.516;2023-10-31T01:17:11;2.45;;;1.27;;
60722;SDS011;46574;52.818;6.516;2023-10-31T01:19:37;1.50;;;0.98;;
60722;SDS011;46574;52.818;6.516;2023-10-31T01:22:03;4.38;;;0.90;;
60722;SDS011;46574;52.818;6.516;2023-10-31T01:24:29;1.77;;;0.90;;
60722;SDS011;46574;52.818;6.516;2023-10-31T01:26:55;1.48;;;0.70;;
60722;SDS011;46574;52.818;6.516;2023-10-31T01:29:20;1.83;;;1.05;;
60722;SDS011;46574;52.818;6.516;2023-10-31T01:31:46;2.88;;;1.00;;
60722;SDS011;46574;52.818;6.516;2023-10-31T01:34:12;2.38;;;0.85;;
60722;SDS011;46574;52.818;6.516;2023-10-31T01:36:37;1.25;;;0.82;;
60722;SDS011;46574;52.818;6.516;2023-10-31T01:39:03;2.83;;;1.05;;
60722;SDS011;46574;52.818;6.516;2023-10-31T01:41:29;2.25;;;0.98;;
60722;SDS011;46574;52.818;6.516;2023-10-31T01:43:54;2.38;;;0.90;;
60722;SDS011;46574;52.818;6.516;2023-10-31T01:46:20;2.75;;;1.10;;
60722;SDS011;46574;52.818;6.516;2023-10-31T01:48:45;1.88;;;1.27;;
60722;SDS011;46574;52.818;6.516;2023-10-31T01:51:11;3.00;;;1.05;;
60722;SDS011;46574;52.818;6.516;2023-10-31T01:53:37;2.22;;;1.05;;
60722;SDS011;46574;52.818;6.516;2023-10-31T01:56:04;2.70;;;1.00;;
60722;SDS011;46574;52.818;6.516;2023-10-31T01:58:32;1.35;;;0.98;;
60722;SDS011;46574;52.818;6.516;2023-10-31T02:01:01;2.38;;;0.90;;
60722;SDS011;46574;52.818;6.516;2023-10-31T02:03:29;1.73;;;1.05;;
60722;SDS011;46574;52.818;6.516;2023-10-31T02:05:55;4.05;;;0.90;;
60722;SDS011;46574;52.818;6.516;2023-10-31T02:08:22;2.42;;;1.00;;
60722;SDS011;46574;52.818;6.516;2023-10-31T02:10:49;4.10;;;1.20;;
60722;SDS011;46574;52.818;6.516;2023-10-31T02:13:15;2.38;;;1.20;;
60722;SDS011;46574;52.818;6.516;2023-10-31T02:15:42;2.85;;;1.30;;
60722;SDS011;46574;52.818;6.516;2023-10-31T02:18:08;3.60;;;1.63;;
60722;SDS011;46574;52.818;6.516;2023-10-31T02:20:34;3.35;;;1.40;;
60722;SDS011;46574;52.818;6.516;2023-10-31T02:23:00;2.28;;;1.40;;
60722;SDS011;46574;52.818;6.516;2023-10-31T02:25:27;3.35;;;1.48;;
60722;SDS011;46574;52.818;6.516;2023-10-31T02:27:53;3.80;;;1.40;;
60722;SDS011;46574;52.818;6.516;2023-10-31T02:30:18;3.15;;;1.40;;
60722;SDS011;46574;52.818;6.516;2023-10-31T02:32:44;3.72;;;1.52;;
60722;SDS011;46574;52.818;6.516;2023-10-31T02:35:10;4.10;;;1.60;;
60722;SDS011;46574;52.818;6.516;2023-10-31T02:37:35;5.05;;;1.33;;
60722;SDS011;46574;52.818;6.516;2023-10-31T02:40:01;4.93;;;1.50;;
60722;SDS011;46574;52.818;6.516;2023-10-31T02:42:27;3.92;;;1.40;;
60722;SDS011;46574;52.818;6.516;2023-10-31T02:44:53;4.90;;;1.90;;
60722;SDS011;46574;52.818;6.516;2023-10-31T02:47:19;3.28;;;1.50;;
60722;SDS011;46574;52.818;6.516;2023-10-31T02:49:45;4.72;;;2.05;;
60722;SDS011;46574;52.818;6.516;2023-10-31T02:52:11;5.60;;;2.60;;
60722;SDS011;46574;52.818;6.516;2023-10-31T02:54:36;5.93;;;2.97;;
60722;SDS011;46574;52.818;6.516;2023-10-31T02:57:02;6.28;;;3.67;;
60722;SDS011;46574;52.818;6.516;2023-10-31T02:59:28;5.07;;;3.45;;
60722;SDS011;46574;52.818;6.516;2023-10-31T03:01:55;6.55;;;3.33;;
60722;SDS011;46574;52.818;6.516;2023-10-31T03:04:21;7.10;;;3.72;;
60722;SDS011;46574;52.818;6.516;2023-10-31T03:06:47;5.63;;;3.47;;
60722;SDS011;46574;52.818;6.516;2023-10-31T03:09:13;5.18;;;3.20;;
60722;SDS011;46574;52.818;6.516;2023-10-31T03:11:39;5.05;;;3.00;;
60722;SDS011;46574;52.818;6.516;2023-10-31T03:14:05;4.25;;;3.28;;
60722;SDS011;46574;52.818;6.516;2023-10-31T03:16:30;5.60;;;2.83;;
60722;SDS011;46574;52.818;6.516;2023-10-31T03:18:56;4.43;;;2.63;;
60722;SDS011;46574;52.818;6.516;2023-10-31T03:21:22;4.50;;;2.80;;
60722;SDS011;46574;52.818;6.516;2023-10-31T03:23:48;7.32;;;2.58;;
60722;SDS011;46574;52.818;6.516;2023-10-31T03:26:17;4.80;;;2.63;;
60722;SDS011;46574;52.818;6.516;2023-10-31T03:31:09;3.30;;;2.40;;
60722;SDS011;46574;52.818;6.516;2023-10-31T03:33:35;4.63;;;2.50;;
60722;SDS011;46574;52.818;6.516;2023-10-31T03:36:01;4.72;;;2.70;;
60722;SDS011;46574;52.818;6.516;2023-10-31T03:38:27;4.50;;;2.28;;
60722;SDS011;46574;52.818;6.516;2023-10-31T03:40:53;4.35;;;2.80;;
60722;SDS011;46574;52.818;6.516;2023-10-31T03:43:19;3.75;;;2.90;;
60722;SDS011;46574;52.818;6.516;2023-10-31T03:45:48;7.45;;;3.10;;
60722;SDS011;46574;52.818;6.516;2023-10-31T03:48:15;5.10;;;2.60;;
60722;SDS011;46574;52.818;6.516;2023-10-31T03:50:41;6.45;;;3.30;;
60722;SDS011;46574;52.818;6.516;2023-10-31T03:53:07;4.78;;;3.08;;
60722;SDS011;46574;52.818;6.516;2023-10-31T03:55:33;5.80;;;3.33;;
60722;SDS011;46574;52.818;6.516;2023-10-31T03:57:58;3.95;;;2.63;;
60722;SDS011;46574;52.818;6.516;2023-10-31T04:00:24;4.68;;;2.85;;
60722;SDS011;46574;52.818;6.516;2023-10-31T04:02:50;4.78;;;1.95;;
60722;SDS011;46574;52.818;6.516;2023-10-31T04:05:15;2.83;;;2.13;;
60722;SDS011;46574;52.818;6.516;2023-10-31T04:07:41;3.42;;;2.08;;
60722;SDS011;46574;52.818;6.516;2023-10-31T04:10:08;2.50;;;1.58;;
60722;SDS011;46574;52.818;6.516;2023-10-31T04:12:34;3.58;;;1.67;;
60722;SDS011;46574;52.818;6.516;2023-10-31T04:15:00;4.00;;;1.58;;
60722;SDS011;46574;52.818;6.516;2023-10-31T04:17:26;3.45;;;1.77;;
60722;SDS011;46574;52.818;6.516;2023-10-31T04:19:52;3.33;;;2.58;;
60722;SDS011;46574;52.818;6.516;2023-10-31T04:22:17;3.05;;;2.05;;
60722;SDS011;46574;52.818;6.516;2023-10-31T04:24:43;2.83;;;1.70;;
60722;SDS011;46574;52.818;6.516;2023-10-31T04:27:08;4.35;;;1.80;;
60722;SDS011;46574;52.818;6.516;2023-10-31T04:29:34;5.00;;;1.70;;
60722;SDS011;46574;52.818;6.516;2023-10-31T04:32:00;4.00;;;1.58;;
60722;SDS011;46574;52.818;6.516;2023-10-31T04:34:25;2.58;;;1.70;;
60722;SDS011;46574;52.818;6.516;2023-10-31T04:36:51;4.38;;;1.50;;
60722;SDS011;46574;52.818;6.516;2023-10-31T04:39:17;2.65;;;1.55;;
60722;SDS011;46574;52.818;6.516;2023-10-31T04:41:42;3.40;;;1.40;;
60722;SDS011;46574;52.818;6.516;2023-10-31T04:44:08;4.18;;;1.60;;
60722;SDS011;46574;52.818;6.516;2023-10-31T04:46:34;2.85;;;1.35;;
60722;SDS011;46574;52.818;6.516;2023-10-31T04:48:59;2.97;;;1.15;;
60722;SDS011;46574;52.818;6.516;2023-10-31T04:51:25;2.53;;;1.42;;
60722;SDS011;46574;52.818;6.516;2023-10-31T04:53:50;3.63;;;1.60;;
60722;SDS011;46574;52.818;6.516;2023-10-31T04:56:16;3.67;;;1.33;;
60722;SDS011;46574;52.818;6.516;2023-10-31T04:58:42;3.63;;;1.23;;
60722;SDS011;46574;52.818;6.516;2023-10-31T05:01:12;5.03;;;1.42;;
60722;SDS011;46574;52.818;6.516;2023-10-31T05:03:38;3.60;;;1.40;;
60722;SDS011;46574;52.818;6.516;2023-10-31T05:06:04;3.88;;;1.50;;
60722;SDS011;46574;52.818;6.516;2023-10-31T05:08:31;3.63;;;1.55;;
60722;SDS011;46574;52.818;6.516;2023-10-31T05:10:57;2.55;;;1.52;;
60722;SDS011;46574;52.818;6.516;2023-10-31T05:13:23;4.53;;;1.38;;
60722;SDS011;46574;52.818;6.516;2023-10-31T05:15:49;5.13;;;1.58;;
60722;SDS011;46574;52.818;6.516;2023-10-31T05:18:15;4.07;;;1.40;;
60722;SDS011;46574;52.818;6.516;2023-10-31T05:20:41;3.80;;;1.73;;
60722;SDS011;46574;52.818;6.516;2023-10-31T05:23:07;4.85;;;1.80;;
60722;SDS011;46574;52.818;6.516;2023-10-31T05:25:32;3.13;;;1.55;;
60722;SDS011;46574;52.818;6.516;2023-10-31T05:27:58;2.20;;;1.63;;
60722;SDS011;46574;52.818;6.516;2023-10-31T05:30:24;4.35;;;1.80;;
60722;SDS011;46574;52.818;6.516;2023-10-31T05:32:50;5.00;;;1.70;;
60722;SDS011;46574;52.818;6.516;2023-10-31T05:35:16;3.70;;;1.40;;
60722;SDS011;46574;52.818;6.516;2023-10-31T05:37:42;3.55;;;1.60;;
60722;SDS011;46574;52.818;6.516;2023-10-31T05:40:08;3.33;;;1.90;;
60722;SDS011;46574;52.818;6.516;2023-10-31T05:42:34;4.60;;;1.83;;
60722;SDS011;46574;52.818;6.516;2023-10-31T05:44:59;4.32;;;1.90;;
60722;SDS011;46574;52.818;6.516;2023-10-31T05:47:25;4.90;;;1.88;;
60722;SDS011;46574;52.818;6.516;2023-10-31T05:49:51;4.15;;;1.83;;
60722;SDS011;46574;52.818;6.516;2023-10-31T05:52:17;3.88;;;1.90;;
60722;SDS011;46574;52.818;6.516;2023-10-31T05:54:42;3.35;;;1.38;;
60722;SDS011;46574;52.818;6.516;2023-10-31T05:57:08;3.08;;;1.45;;
60722;SDS011;46574;52.818;6.516;2023-10-31T05:59:33;3.83;;;1.42;;
60722;SDS011;46574;52.818;6.516;2023-10-31T06:01:59;3.95;;;1.40;;
60722;SDS011;46574;52.818;6.516;2023-10-31T06:04:25;1.85;;;1.50;;
60722;SDS011;46574;52.818;6.516;2023-10-31T06:06:51;3.13;;;1.40;;
60722;SDS011;46574;52.818;6.516;2023-10-31T06:09:17;3.55;;;1.48;;
60722;SDS011;46574;52.818;6.516;2023-10-31T06:11:42;2.00;;;1.00;;
60722;SDS011;46574;52.818;6.516;2023-10-31T06:14:09;3.38;;;1.40;;
60722;SDS011;46574;52.818;6.516;2023-10-31T06:16:42;3.13;;;1.45;;
60722;SDS011;46574;52.818;6.516;2023-10-31T06:19:09;3.45;;;1.20;;
60722;SDS011;46574;52.818;6.516;2023-10-31T06:21:35;4.68;;;1.60;;
60722;SDS011;46574;52.818;6.516;2023-10-31T06:24:03;3.28;;;1.30;;
60722;SDS011;46574;52.818;6.516;2023-10-31T06:26:29;4.47;;;1.53;;
60722;SDS011;46574;52.818;6.516;2023-10-31T06:28:55;4.07;;;1.40;;
60722;SDS011;46574;52.818;6.516;2023-10-31T06:31:20;2.15;;;1.30;;
60722;SDS011;46574;52.818;6.516;2023-10-31T06:33:46;3.65;;;1.63;;
60722;SDS011;46574;52.818;6.516;2023-10-31T06:36:12;3.35;;;1.60;;
60722;SDS011;46574;52.818;6.516;2023-10-31T06:38:37;4.65;;;1.45;;
60722;SDS011;46574;52.818;6.516;2023-10-31T06:41:03;4.45;;;1.80;;
60722;SDS011;46574;52.818;6.516;2023-10-31T06:43:29;3.15;;;1.60;;
60722;SDS011;46574;52.818;6.516;2023-10-31T06:45:55;4.53;;;2.15;;
60722;SDS011;46574;52.818;6.516;2023-10-31T06:48:22;4.20;;;2.00;;
60722;SDS011;46574;52.818;6.516;2023-10-31T06:50:47;4.95;;;1.90;;
60722;SDS011;46574;52.818;6.516;2023-10-31T06:53:13;4.30;;;2.42;;
60722;SDS011;46574;52.818;6.516;2023-10-31T06:55:39;4.10;;;2.75;;
60722;SDS011;46574;52.818;6.516;2023-10-31T06:58:04;5.65;;;3.28;;
60722;SDS011;46574;52.818;6.516;2023-10-31T07:00:30;4.53;;;2.97;;
60722;SDS011;46574;52.818;6.516;2023-10-31T07:02:56;6.28;;;3.30;;
60722;SDS011;46574;52.818;6.516;2023-10-31T07:05:23;5.22;;;3.53;;
60722;SDS011;46574;52.818;6.516;2023-10-31T07:07:50;5.25;;;3.45;;
60722;SDS011;46574;52.818;6.516;2023-10-31T07:10:16;9.32;;;3.97;;
60722;SDS011;46574;52.818;6.516;2023-10-31T07:12:41;6.13;;;3.80;;
60722;SDS011;46574;52.818;6.516;2023-10-31T07:15:07;4.38;;;3.70;;
60722;SDS011;46574;52.818;6.516;2023-10-31T07:17:33;5.00;;;3.83;;
60722;SDS011;46574;52.818;6.516;2023-10-31T07:19:59;4.38;;;3.97;;
60722;SDS011;46574;52.818;6.516;2023-10-31T07:22:25;6.65;;;4.18;;
60722;SDS011;46574;52.818;6.516;2023-10-31T07:24:51;5.18;;;4.20;;
60722;SDS011;46574;52.818;6.516;2023-10-31T07:27:17;7.30;;;4.68;;
60722;SDS011;46574;52.818;6.516;2023-10-31T07:29:43;5.60;;;4.47;;
60722;SDS011;46574;52.818;6.516;2023-10-31T07:32:09;8.25;;;4.55;;
60722;SDS011;46574;52.818;6.516;2023-10-31T07:34:35;5.10;;;4.60;;
60722;SDS011;46574;52.818;6.516;2023-10-31T07:37:01;6.88;;;5.22;;
60722;SDS011;46574;52.818;6.516;2023-10-31T07:39:27;6.90;;;4.30;;
60722;SDS011;46574;52.818;6.516;2023-10-31T07:41:52;5.25;;;4.00;;
60722;SDS011;46574;52.818;6.516;2023-10-31T07:44:18;5.55;;;4.25;;
60722;SDS011;46574;52.818;6.516;2023-10-31T07:46:44;5.90;;;4.78;;
60722;SDS011;46574;52.818;6.516;2023-10-31T07:49:09;5.05;;;4.00;;
60722;SDS011;46574;52.818;6.516;2023-10-31T07:51:35;6.75;;;4.43;;
60722;SDS011;46574;52.818;6.516;2023-10-31T07:54:01;7.30;;;4.15;;
60722;SDS011;46574;52.818;6.516;2023-10-31T07:56:27;6.10;;;4.10;;
60722;SDS011;46574;52.818;6.516;2023-10-31T07:58:53;4.40;;;3.63;;
60722;SDS011;46574;52.818;6.516;2023-10-31T08:01:19;6.22;;;4.00;;
60722;SDS011;46574;52.818;6.516;2023-10-31T08:03:46;5.75;;;3.85;;
60722;SDS011;46574;52.818;6.516;2023-10-31T08:06:13;5.32;;;3.38;;
60722;SDS011;46574;52.818;6.516;2023-10-31T08:08:38;4.95;;;3.53;;
60722;SDS011;46574;52.818;6.516;2023-10-31T08:11:07;6.68;;;4.00;;
60722;SDS011;46574;52.818;6.516;2023-10-31T08:13:34;4.65;;;3.20;;
60722;SDS011;46574;52.818;6.516;2023-10-31T08:16:01;5.82;;;3.70;;
60722;SDS011;46574;52.818;6.516;2023-10-31T08:18:27;6.25;;;3.20;;
60722;SDS011;46574;52.818;6.516;2023-10-31T08:20:52;7.85;;;3.78;;
60722;SDS011;46574;52.818;6.516;2023-10-31T08:23:18;5.97;;;3.00;;
60722;SDS011;46574;52.818;6.516;2023-10-31T08:25:44;4.72;;;2.70;;
60722;SDS011;46574;52.818;6.516;2023-10-31T08:28:09;3.55;;;2.67;;
60722;SDS011;46574;52.818;6.516;2023-10-31T08:30:36;4.57;;;2.58;;
60722;SDS011;46574;52.818;6.516;2023-10-31T08:33:03;5.13;;;3.25;;
60722;SDS011;46574;52.818;6.516;2023-10-31T08:35:29;4.53;;;2.40;;
60722;SDS011;46574;52.818;6.516;2023-10-31T08:37:55;4.75;;;2.60;;
60722;SDS011;46574;52.818;6.516;2023-10-31T08:40:20;2.10;;;1.40;;
60722;SDS011;46574;52.818;6.516;2023-10-31T08:42:46;3.10;;;1.30;;
60722;SDS011;46574;52.818;6.516;2023-10-31T08:45:11;3.25;;;1.20;;
60722;SDS011;46574;52.818;6.516;2023-10-31T08:47:37;2.10;;;1.20;;
60722;SDS011;46574;52.818;6.516;2023-10-31T08:50:03;4.88;;;1.60;;
60722;SDS011;46574;52.818;6.516;2023-10-31T08:52:29;6.05;;;1.00;;
60722;SDS011;46574;52.818;6.516;2023-10-31T08:54:55;1.73;;;0.90;;
60722;SDS011;46574;52.818;6.516;2023-10-31T08:57:20;2.55;;;1.00;;
60722;SDS011;46574;52.818;6.516;2023-10-31T08:59:47;3.35;;;0.90;;
60722;SDS011;46574;52.818;6.516;2023-10-31T09:02:12;5.30;;;0.90;;
60722;SDS011;46574;52.818;6.516;2023-10-31T09:04:38;3.13;;;0.90;;
60722;SDS011;46574;52.818;6.516;2023-10-31T09:07:03;4.65;;;1.20;;
60722;SDS011;46574;52.818;6.516;2023-10-31T09:09:29;3.33;;;1.00;;
60722;SDS011;46574;52.818;6.516;2023-10-31T09:11:55;5.70;;;1.55;;
60722;SDS011;46574;52.818;6.516;2023-10-31T09:14:20;4.03;;;0.80;;
60722;SDS011;46574;52.818;6.516;2023-10-31T09:16:46;3.28;;;0.85;;
60722;SDS011;46574;52.818;6.516;2023-10-31T09:19:12;4.70;;;0.90;;
60722;SDS011;46574;52.818;6.516;2023-10-31T09:21:38;3.10;;;0.88;;
60722;SDS011;46574;52.818;6.516;2023-10-31T09:24:03;4.93;;;0.98;;
60722;SDS011;46574;52.818;6.516;2023-10-31T09:26:29;3.83;;;0.90;;
60722;SDS011;46574;52.818;6.516;2023-10-31T09:28:55;2.05;;;0.70;;
60722;SDS011;46574;52.818;6.516;2023-10-31T09:31:20;2.28;;;0.90;;
60722;SDS011;46574;52.818;6.516;2023-10-31T09:33:46;2.88;;;0.63;;
60722;SDS011;46574;52.818;6.516;2023-10-31T09:36:12;2.78;;;0.73;;
60722;SDS011;46574;52.818;6.516;2023-10-31T09:38:39;2.50;;;0.75;;
60722;SDS011;46574;52.818;6.516;2023-10-31T09:41:05;1.38;;;0.50;;
60722;SDS011;46574;52.818;6.516;2023-10-31T09:43:31;3.03;;;0.57;;
60722;SDS011;46574;52.818;6.516;2023-10-31T09:45:57;3.80;;;0.85;;
60722;SDS011;46574;52.818;6.516;2023-10-31T09:48:25;1.23;;;0.50;;
60722;SDS011;46574;52.818;6.516;2023-10-31T09:50:51;3.95;;;0.60;;
60722;SDS011;46574;52.818;6.516;2023-10-31T09:53:18;1.63;;;0.50;;
60722;SDS011;46574;52.818;6.516;2023-10-31T09:55:45;2.88;;;0.60;;
60722;SDS011;46574;52.818;6.516;2023-10-31T09:58:11;2.33;;;0.52;;
60722;SDS011;46574;52.818;6.516;2023-10-31T10:00:38;1.85;;;0.40;;
60722;SDS011;46574;52.818;6.516;2023-10-31T10:03:06;1.02;;;0.30;;
60722;SDS011;46574;52.818;6.516;2023-10-31T10:05:35;2.28;;;0.35;;
60722;SDS011;46574;52.818;6.516;2023-10-31T10:08:03;2.05;;;0.30;;
60722;SDS011;46574;52.818;6.516;2023-10-31T10:10:29;1.45;;;0.30;;
60722;SDS011;46574;52.818;6.516;2023-10-31T10:12:56;0.30;;;0.20;;
60722;SDS011;46574;52.818;6.516;2023-10-31T10:15:23;1.58;;;0.28;;
60722;SDS011;46574;52.818;6.516;2023-10-31T10:17:50;2.30;;;0.65;;
60722;SDS011;46574;52.818;6.516;2023-10-31T10:20:16;0.60;;;0.32;;
60722;SDS011;46574;52.818;6.516;2023-10-31T10:22:43;0.90;;;0.38;;
60722;SDS011;46574;52.818;6.516;2023-10-31T10:25:13;2.20;;;0.90;;
60722;SDS011;46574;52.818;6.516;2023-10-31T10:27:46;1.73;;;0.50;;
60722;SDS011;46574;52.818;6.516;2023-10-31T10:30:12;0.22;;;0.22;;
60722;SDS011;46574;52.818;6.516;2023-10-31T10:32:39;0.73;;;0.30;;
60722;SDS011;46574;52.818;6.516;2023-10-31T10:35:06;0.80;;;0.22;;
60722;SDS011;46574;52.818;6.516;2023-10-31T10:37:33;1.20;;;0.30;;
60722;SDS011;46574;52.818;6.516;2023-10-31T10:40:02;0.88;;;0.22;;
60722;SDS011;46574;52.818;6.516;2023-10-31T10:42:32;0.65;;;0.20;;
60722;SDS011;46574;52.818;6.516;2023-10-31T10:45:03;0.35;;;0.20;;
60722;SDS011;46574;52.818;6.516;2023-10-31T10:47:30;0.75;;;0.20;;
60722;SDS011;46574;52.818;6.516;2023-10-31T10:50:01;1.38;;;0.40;;
60722;SDS011;46574;52.818;6.516;2023-10-31T10:52:50;0.70;;;0.20;;
60722;SDS011;46574;52.818;6.516;2023-10-31T10:55:21;1.30;;;0.30;;
60722;SDS011;46574;52.818;6.516;2023-10-31T10:58:09;0.30;;;0.30;;
60722;SDS011;46574;52.818;6.516;2023-10-31T11:00:44;0.98;;;0.30;;
60722;SDS011;46574;52.818;6.516;2023-10-31T11:03:10;0.73;;;0.35;;
60722;SDS011;46574;52.818;6.516;2023-10-31T11:05:37;1.00;;;0.30;;
60722;SDS011;46574;52.818;6.516;2023-10-31T11:08:03;3.15;;;0.93;;
60722;SDS011;46574;52.818;6.516;2023-10-31T11:10:30;1.42;;;0.40;;
60722;SDS011;46574;52.818;6.516;2023-10-31T11:12:57;2.40;;;0.60;;
60722;SDS011;46574;52.818;6.516;2023-10-31T11:15:23;2.55;;;0.60;;
60722;SDS011;46574;52.818;6.516;2023-10-31T11:17:50;1.60;;;0.55;;
60722;SDS011;46574;52.818;6.516;2023-10-31T11:20:17;2.03;;;0.60;;
60722;SDS011;46574;52.818;6.516;2023-10-31T11:22:44;1.88;;;0.55;;
60722;SDS011;46574;52.818;6.516;2023-10-31T11:25:29;1.48;;;0.43;;
60722;SDS011;46574;52.818;6.516;2023-10-31T11:27:57;2.15;;;0.60;;
60722;SDS011;46574;52.818;6.516;2023-10-31T11:30:36;2.00;;;0.50;;
60722;SDS011;46574;52.818;6.516;2023-10-31T11:33:02;1.75;;;0.73;;
60722;SDS011;46574;52.818;6.516;2023-10-31T11:35:30;2.72;;;0.90;;
60722;SDS011;46574;52.818;6.516;2023-10-31T11:38:01;1.02;;;0.80;;
60722;SDS011;46574;52.818;6.516;2023-10-31T11:40:31;1.25;;;0.70;;
60722;SDS011;46574;52.818;6.516;2023-10-31T11:42:58;2.53;;;0.80;;
60722;SDS011;46574;52.818;6.516;2023-10-31T11:48:07;0.60;;;0.50;;
60722;SDS011;46574;52.818;6.516;2023-10-31T11:50:33;2.95;;;0.68;;
60722;SDS011;46574;52.818;6.516;2023-10-31T11:53:00;1.40;;;0.90;;
60722;SDS011;46574;52.818;6.516;2023-10-31T11:55:27;0.73;;;0.65;;
60722;SDS011;46574;52.818;6.516;2023-10-31T11:57:53;1.30;;;0.70;;
60722;SDS011;46574;52.818;6.516;2023-10-31T12:00:22;0.77;;;0.50;;
60722;SDS011;46574;52.818;6.516;2023-10-31T12:03:01;1.23;;;0.52;;
60722;SDS011;46574;52.818;6.516;2023-10-31T12:05:27;3.72;;;1.50;;
60722;SDS011;46574;52.818;6.516;2023-10-31T12:07:55;1.23;;;0.90;;
60722;SDS011;46574;52.818;6.516;2023-10-31T12:10:25;2.05;;;0.90;;
60722;SDS011;46574;52.818;6.516;2023-10-31T12:12:55;1.75;;;0.70;;
60722;SDS011;46574;52.818;6.516;2023-10-31T12:15:22;1.00;;;0.50;;
60722;SDS011;46574;52.818;6.516;2023-10-31T12:17:48;2.08;;;0.60;;
60722;SDS011;46574;52.818;6.516;2023-10-31T12:20:14;2.75;;;0.40;;
60722;SDS011;46574;52.818;6.516;2023-10-31T12:22:41;1.08;;;0.60;;
60722;SDS011;46574;52.818;6.516;2023-10-31T12:25:07;1.48;;;0.63;;
60722;SDS011;46574;52.818;6.516;2023-10-31T12:30:15;1.50;;;0.52;;
60722;SDS011;46574;52.818;6.516;2023-10-31T12:32:43;1.15;;;0.60;;
60722;SDS011;46574;52.818;6.516;2023-10-31T12:35:15;0.63;;;0.50;;
60722;SDS011;46574;52.818;6.516;2023-10-31T12:37:45;0.93;;;0.50;;
60722;SDS011;46574;52.818;6.516;2023-10-31T12:40:21;0.60;;;0.50;;
60722;SDS011;46574;52.818;6.516;2023-10-31T12:42:48;0.95;;;0.40;;
60722;SDS011;46574;52.818;6.516;2023-10-31T12:45:15;0.20;;;0.20;;
60722;SDS011;46574;52.818;6.516;2023-10-31T12:47:43;0.20;;;0.20;;
60722;SDS011;46574;52.818;6.516;2023-10-31T12:50:12;0.20;;;0.20;;
60722;SDS011;46574;52.818;6.516;2023-10-31T12:52:46;0.20;;;0.20;;
60722;SDS011;46574;52.818;6.516;2023-10-31T12:55:26;0.20;;;0.20;;
60722;SDS011;46574;52.818;6.516;2023-10-31T12:57:56;0.20;;;0.20;;
60722;SDS011;46574;52.818;6.516;2023-10-31T13:00:29;0.70;;;0.30;;
60722;SDS011;46574;52.818;6.516;2023-10-31T13:03:03;0.73;;;0.30;;
60722;SDS011;46574;52.818;6.516;2023-10-31T13:05:31;1.05;;;0.50;;
60722;SDS011;46574;52.818;6.516;2023-10-31T13:08:01;0.93;;;0.60;;
60722;SDS011;46574;52.818;6.516;2023-10-31T13:10:29;2.10;;;0.80;;
60722;SDS011;46574;52.818;6.516;2023-10-31T13:12:58;2.43;;;0.80;;
60722;SDS011;46574;52.818;6.516;2023-10-31T13:15:23;1.30;;;0.60;;
60722;SDS011;46574;52.818;6.516;2023-10-31T13:17:50;1.13;;;0.43;;
60722;SDS011;46574;52.818;6.516;2023-10-31T13:20:17;1.20;;;0.30;;
60722;SDS011;46574;52.818;6.516;2023-10-31T13:25:11;2.05;;;0.68;;
60722;SDS011;46574;52.818;6.516;2023-10-31T13:27:42;1.98;;;0.60;;
60722;SDS011;46574;52.818;6.516;2023-10-31T13:30:12;2.25;;;0.63;;
60722;SDS011;46574;52.818;6.516;2023-10-31T13:32:42;1.20;;;0.65;;
60722;SDS011;46574;52.818;6.516;2023-10-31T13:35:07;3.65;;;0.70;;
60722;SDS011;46574;52.818;6.516;2023-10-31T13:37:37;3.70;;;0.82;;
60722;SDS011;46574;52.818;6.516;2023-10-31T13:40:03;2.50;;;0.73;;
60722;SDS011;46574;52.818;6.516;2023-10-31T13:42:30;2.88;;;0.70;;
60722;SDS011;46574;52.818;6.516;2023-10-31T13:44:55;2.83;;;0.75;;
60722;SDS011;46574;52.818;6.516;2023-10-31T13:47:21;1.23;;;0.50;;
60722;SDS011;46574;52.818;6.516;2023-10-31T13:49:47;2.80;;;1.30;;
60722;SDS011;46574;52.818;6.516;2023-10-31T13:52:13;3.22;;;0.55;;
60722;SDS011;46574;52.818;6.516;2023-10-31T13:54:39;3.00;;;0.57;;
60722;SDS011;46574;52.818;6.516;2023-10-31T13:57:05;1.75;;;0.63;;
60722;SDS011;46574;52.818;6.516;2023-10-31T13:59:30;1.90;;;0.90;;
60722;SDS011;46574;52.818;6.516;2023-10-31T14:01:56;3.97;;;0.70;;
60722;SDS011;46574;52.818;6.516;2023-10-31T14:04:22;2.67;;;0.80;;
60722;SDS011;46574;52.818;6.516;2023-10-31T14:06:48;1.40;;;0.60;;
60722;SDS011;46574;52.818;6.516;2023-10-31T14:09:14;2.05;;;0.40;;
60722;SDS011;46574;52.818;6.516;2023-10-31T14:11:39;1.88;;;0.50;;
60722;SDS011;46574;52.818;6.516;2023-10-31T14:14:06;1.40;;;0.43;;
60722;SDS011;46574;52.818;6.516;2023-10-31T14:16:34;2.20;;;0.70;;
60722;SDS011;46574;52.818;6.516;2023-10-31T14:19:00;2.17;;;0.50;;
60722;SDS011;46574;52.818;6.516;2023-10-31T14:21:27;4.25;;;0.88;;
60722;SDS011;46574;52.818;6.516;2023-10-31T14:23:53;1.13;;;0.60;;
60722;SDS011;46574;52.818;6.516;2023-10-31T14:26:19;1.48;;;0.90;;
60722;SDS011;46574;52.818;6.516;2023-10-31T14:28:46;1.00;;;0.93;;
60722;SDS011;46574;52.818;6.516;2023-10-31T14:31:12;3.13;;;2.42;;
60722;SDS011;46574;52.818;6.516;2023-10-31T14:33:38;2.90;;;1.88;;
60722;SDS011;46574;52.818;6.516;2023-10-31T14:36:05;2.78;;;1.75;;
60722;SDS011;46574;52.818;6.516;2023-10-31T14:38:31;1.73;;;1.00;;
60722;SDS011;46574;52.818;6.516;2023-10-31T14:40:56;2.33;;;0.85;;
60722;SDS011;46574;52.818;6.516;2023-10-31T14:43:22;2.58;;;0.85;;
60722;SDS011;46574;52.818;6.516;2023-10-31T14:45:48;1.90;;;1.00;;
60722;SDS011;46574;52.818;6.516;2023-10-31T14:48:13;2.10;;;1.00;;
60722;SDS011;46574;52.818;6.516;2023-10-31T14:50:39;1.75;;;0.80;;
60722;SDS011;46574;52.818;6.516;2023-10-31T14:53:06;1.67;;;0.70;;
60722;SDS011;46574;52.818;6.516;2023-10-31T14:55:31;4.15;;;0.90;;